Main page
METAR-TAF:

METAR-TAF

Airports :

Shiraz International Airport

Shiraz, Iran

latitude: 29-32N, longitude: 052-35E, elevation: 1486 m

Current weather observation

The report was made 33 minutes ago, at 21:30 UTC
Calm wind
Temperature 18°C
Humidity 34%
Pressure 1021 hPa
Visibility 10 km or more
no clouds below 1500 m and no cumulonimbus

METAR: OISS 212130Z 00000KT CAVOK 18/02 Q1021 A3015

Time: 01:33 (22:03 UTC)

Forecast

The report was made 4 hours and 33 minutes ago, at 17:30 UTC
Forecast valid from 21 at 18 UTC to 22 at 24 UTC
Wind 6 kt from the West
Visibility: 8000 m
Few clouds at a height of 4000 ft
Scattered clouds at a height of 9000 ft

TAF: OISS 211730Z 2118/2224 28006KT 8000 FEW040 SCT090

Weather observations and forecasts of more than 4000 airports (METAR and TAF reports).

The available stations are represented by yellow and red dots on the map.

Hover mouse over dot to see the name of the station.

Then click to see weather observations and forecasts.

To change the map : click on the green buttons with a black cross to zoom in, on the green button with a dash to zoom out, or on the green arrows for adjacent maps.


METAR-TAF: